createdAt,value
2023-05-19T00:00:58.949Z,78.50
2023-05-19T00:03:26.932Z,78.76
2023-05-19T00:05:54.425Z,79.12
2023-05-19T00:08:24.518Z,78.87
2023-05-19T00:10:51.423Z,79.21
2023-05-19T00:13:18.166Z,79.36
2023-05-19T00:15:45.164Z,79.67
2023-05-19T00:18:13.964Z,79.13
2023-05-19T00:20:41.141Z,79.29
2023-05-19T00:23:08.037Z,79.79
2023-05-19T00:25:34.653Z,80.22
2023-05-19T00:28:02.382Z,80.94
2023-05-19T00:30:31.967Z,80.94
2023-05-19T00:32:58.735Z,80.71
2023-05-19T00:35:25.972Z,81.12
2023-05-19T00:37:52.380Z,81.39
2023-05-19T00:40:19.106Z,81.76
2023-05-19T00:42:45.661Z,82.29
2023-05-19T00:45:12.188Z,82.54
2023-05-19T00:47:39.490Z,82.65
2023-05-19T00:50:06.691Z,82.37
2023-05-19T00:52:33.659Z,82.59
2023-05-19T00:55:00.341Z,82.50
2023-05-19T00:57:27.814Z,82.94
2023-05-19T00:59:55.004Z,82.50
2023-05-19T01:02:21.701Z,81.65
2023-05-19T01:04:50.044Z,81.88
2023-05-19T01:07:16.622Z,81.03
2023-05-19T01:09:44.381Z,80.80
2023-05-19T01:12:11.370Z,81.31
2023-05-19T01:14:37.808Z,81.47
2023-05-19T01:17:16.847Z,81.46
2023-05-19T01:20:06.632Z,81.18
2023-05-19T01:22:54.819Z,80.82
2023-05-19T01:25:38.033Z,80.36
2023-05-19T01:28:19.913Z,80.31
2023-05-19T01:30:52.738Z,80.68
2023-05-19T01:33:20.964Z,81.11
2023-05-19T01:35:49.155Z,80.56
2023-05-19T01:38:17.700Z,80.76
2023-05-19T01:40:46.021Z,80.61
2023-05-19T01:43:15.494Z,80.21
2023-05-19T01:45:44.590Z,80.48
2023-05-19T01:48:12.669Z,80.75
2023-05-19T01:50:40.916Z,81.62
2023-05-19T01:53:07.571Z,81.88
2023-05-19T01:55:40.568Z,81.66
2023-05-19T01:58:21.359Z,81.79
2023-05-19T02:01:16.503Z,82.00
2023-05-19T02:03:59.372Z,82.59
2023-05-19T02:06:44.629Z,83.01
2023-05-19T02:09:44.573Z,83.63
2023-05-19T02:12:23.387Z,84.51
2023-05-19T02:14:58.484Z,84.89
2023-05-19T02:17:29.123Z,85.39
2023-05-19T02:19:55.834Z,85.61
2023-05-19T02:22:22.649Z,86.04
2023-05-19T02:24:51.560Z,86.34
2023-05-19T02:27:18.565Z,87.19
2023-05-19T02:29:45.046Z,87.09
2023-05-19T02:32:11.907Z,87.56
2023-05-19T02:34:40.023Z,87.53
2023-05-19T02:37:08.123Z,87.78
2023-05-19T02:39:35.242Z,88.37
2023-05-19T02:42:01.774Z,88.75
2023-05-19T02:44:28.404Z,88.68
2023-05-19T02:46:54.953Z,87.98
2023-05-19T02:49:22.043Z,88.36
2023-05-19T02:51:48.515Z,88.30
2023-05-19T02:54:15.014Z,88.56
2023-05-19T02:56:41.521Z,88.79
2023-05-19T02:59:08.014Z,88.60
2023-05-19T03:01:34.613Z,89.15
2023-05-19T03:04:01.647Z,88.79
2023-05-19T03:06:29.322Z,88.29
2023-05-19T03:08:55.835Z,87.29
2023-05-19T03:11:23.161Z,87.05
2023-05-19T03:13:49.654Z,87.74
2023-05-19T03:16:16.230Z,87.24
2023-05-19T03:18:43.164Z,87.45
2023-05-19T03:21:09.624Z,87.30
2023-05-19T03:23:36.237Z,87.59
2023-05-19T03:26:04.152Z,87.62
2023-05-19T03:28:30.756Z,87.73
2023-05-19T03:30:57.377Z,87.81
2023-05-19T03:33:29.791Z,87.73
2023-05-19T03:40:10.486Z,87.61
2023-05-19T03:42:39.741Z,87.04
2023-05-19T03:45:07.030Z,87.69
2023-05-19T03:47:34.110Z,88.00
2023-05-19T03:50:11.988Z,88.53
2023-05-19T03:53:04.433Z,89.34
2023-05-19T03:55:38.988Z,88.56
2023-05-19T03:58:06.392Z,88.06
2023-05-19T04:00:33.173Z,88.49
2023-05-19T04:03:00.621Z,88.53
2023-05-19T04:05:27.266Z,88.18
2023-05-19T04:07:53.704Z,88.03
2023-05-19T04:10:20.997Z,87.78
2023-05-19T04:12:47.899Z,86.94
2023-05-19T04:15:15.724Z,87.68
2023-05-19T04:17:42.963Z,88.17
2023-05-19T04:20:10.019Z,87.96
2023-05-19T04:22:36.836Z,86.72
2023-05-19T04:25:04.889Z,87.07
2023-05-19T04:27:31.975Z,87.40
2023-05-19T04:29:59.374Z,87.14
2023-05-19T04:32:25.972Z,86.86
2023-05-19T04:34:53.673Z,86.68
2023-05-19T04:37:25.978Z,86.39
2023-05-19T04:39:52.980Z,85.55
2023-05-19T04:42:21.947Z,85.64
2023-05-19T04:44:51.799Z,85.95
2023-05-19T04:47:21.337Z,85.78
2023-05-19T04:49:48.756Z,84.79
2023-05-19T04:52:15.875Z,84.37
2023-05-19T04:54:42.398Z,84.60
2023-05-19T04:57:12.537Z,85.02
2023-05-19T04:59:39.707Z,84.36
2023-05-19T05:02:08.133Z,84.61
2023-05-19T05:04:36.792Z,85.86
2023-05-19T05:07:03.236Z,86.56
2023-05-19T05:09:29.785Z,86.11
2023-05-19T05:11:58.922Z,85.90
2023-05-19T05:14:25.771Z,85.62
2023-05-19T05:16:52.562Z,85.05
2023-05-19T05:19:23.215Z,84.67
2023-05-19T05:21:50.122Z,83.85
2023-05-19T05:24:17.411Z,83.52
2023-05-19T05:26:50.112Z,83.20
2023-05-19T05:29:16.612Z,82.57
2023-05-19T05:31:43.256Z,82.46
2023-05-19T05:34:10.624Z,82.08
2023-05-19T05:36:37.547Z,82.17
2023-05-19T05:39:05.538Z,82.20
2023-05-19T05:41:35.242Z,81.73
2023-05-19T05:44:06.474Z,81.51
2023-05-19T05:46:33.342Z,81.31
2023-05-19T05:49:00.424Z,81.14
2023-05-19T05:51:27.179Z,81.09
2023-05-19T05:53:54.873Z,81.23
2023-05-19T05:56:27.578Z,81.03
2023-05-19T05:58:54.442Z,80.58
2023-05-19T06:01:21.852Z,80.39
2023-05-19T06:03:49.519Z,79.77
2023-05-19T06:06:20.440Z,79.15
2023-05-19T06:08:47.041Z,78.89
2023-05-19T06:11:14.097Z,79.16
2023-05-19T06:13:41.831Z,78.91
2023-05-19T06:16:13.143Z,78.45
2023-05-19T06:18:43.723Z,78.22
2023-05-19T06:21:10.406Z,78.28
2023-05-19T06:23:37.465Z,78.00
2023-05-19T06:26:05.741Z,77.70
2023-05-19T06:28:33.411Z,77.38
2023-05-19T06:31:00.305Z,77.01
2023-05-19T06:33:39.309Z,76.94
2023-05-19T06:36:05.984Z,75.93
2023-05-19T06:38:32.548Z,75.52
2023-05-19T06:40:59.459Z,75.19
2023-05-19T06:43:25.963Z,74.43
2023-05-19T06:45:58.281Z,74.33
2023-05-19T06:48:25.798Z,74.07
2023-05-19T06:50:52.381Z,73.70
2023-05-19T06:53:21.508Z,73.22
2023-05-19T06:55:59.474Z,73.43
2023-05-19T06:58:28.331Z,72.63
2023-05-19T07:00:55.914Z,71.84
2023-05-19T07:03:25.960Z,71.07
2023-05-19T07:05:54.289Z,69.84
2023-05-19T07:08:20.854Z,68.65
2023-05-19T07:10:47.405Z,68.24
2023-05-19T07:13:15.228Z,67.76
2023-05-19T07:15:41.906Z,67.10
2023-05-19T07:18:08.744Z,66.65
2023-05-19T07:20:35.719Z,66.40
2023-05-19T07:23:02.675Z,65.97
2023-05-19T07:25:30.434Z,64.66
2023-05-19T07:27:57.659Z,64.59
2023-05-19T07:30:24.532Z,64.18
2023-05-19T07:32:51.181Z,64.18
2023-05-19T07:35:17.713Z,64.42
2023-05-19T07:37:44.691Z,64.27
2023-05-19T07:40:11.572Z,63.69
2023-05-19T07:42:37.999Z,64.35
2023-05-19T07:45:04.764Z,63.83
2023-05-19T07:47:31.397Z,63.87
2023-05-19T07:49:57.896Z,62.40
2023-05-19T07:52:24.396Z,61.77
2023-05-19T07:54:50.880Z,61.50
2023-05-19T07:57:18.894Z,61.76
2023-05-19T07:59:45.526Z,60.60
2023-05-19T08:02:12.155Z,60.07
2023-05-19T08:04:38.815Z,59.83
2023-05-19T08:07:05.472Z,60.55
2023-05-19T08:09:31.914Z,59.04
2023-05-19T08:11:58.496Z,58.39
2023-05-19T08:14:24.972Z,57.24
2023-05-19T08:16:51.692Z,57.76
2023-05-19T08:19:18.216Z,57.85
2023-05-19T08:21:45.369Z,56.91
2023-05-19T08:24:11.819Z,56.50
2023-05-19T08:26:38.297Z,55.68
2023-05-19T08:29:05.023Z,55.07
2023-05-19T08:31:31.629Z,54.33
2023-05-19T08:33:58.153Z,53.75
2023-05-19T08:36:24.768Z,54.11
2023-05-19T08:38:51.512Z,54.80
2023-05-19T08:41:18.185Z,53.43
2023-05-19T08:43:45.321Z,53.92
2023-05-19T08:46:14.843Z,53.49
2023-05-19T08:48:43.867Z,53.11
2023-05-19T08:51:10.262Z,53.31
2023-05-19T08:53:40.987Z,52.56
2023-05-19T08:56:18.137Z,51.36
2023-05-19T08:58:45.944Z,49.75
2023-05-19T09:01:18.613Z,49.92
2023-05-19T09:03:47.383Z,46.97
2023-05-19T09:06:14.126Z,48.15
2023-05-19T09:08:42.108Z,47.79
2023-05-19T09:11:11.719Z,46.43
2023-05-19T09:13:38.647Z,44.93
2023-05-19T09:16:06.474Z,45.81
2023-05-19T09:18:33.185Z,45.50
2023-05-19T09:21:02.632Z,45.44
2023-05-19T09:23:32.545Z,45.45
2023-05-19T09:26:02.469Z,45.99
2023-05-19T09:28:32.996Z,44.39
2023-05-19T09:31:04.854Z,45.18
2023-05-19T09:33:33.925Z,45.45
2023-05-19T09:36:01.172Z,45.20
2023-05-19T09:38:28.056Z,44.67
2023-05-19T09:40:59.305Z,44.45
2023-05-19T09:43:33.559Z,45.35
2023-05-19T09:46:03.789Z,43.51
2023-05-19T09:48:30.691Z,43.38
2023-05-19T09:50:57.939Z,43.65
2023-05-19T09:53:25.191Z,43.65
2023-05-19T09:55:57.487Z,43.26
2023-05-19T09:58:24.929Z,43.23
2023-05-19T10:00:54.466Z,42.88
2023-05-19T10:03:23.821Z,42.20
2023-05-19T10:05:51.409Z,42.47
2023-05-19T10:08:17.968Z,47.62
2023-05-19T10:10:47.730Z,43.93
2023-05-19T10:13:16.397Z,44.29
2023-05-19T10:15:57.433Z,42.59
2023-05-19T10:18:27.386Z,43.27
2023-05-19T10:20:54.300Z,43.73
2023-05-19T10:23:21.026Z,42.37
2023-05-19T10:25:49.149Z,42.84
2023-05-19T10:28:18.460Z,41.67
2023-05-19T10:30:49.281Z,42.53
2023-05-19T10:33:18.804Z,41.15
2023-05-19T10:35:54.215Z,42.09
2023-05-19T10:38:48.265Z,41.85
2023-05-19T10:41:52.647Z,40.79
2023-05-19T10:44:34.089Z,41.02
2023-05-19T10:47:00.835Z,41.26
2023-05-19T10:49:27.878Z,40.40
2023-05-19T10:51:57.461Z,38.51
2023-05-19T10:54:41.011Z,38.31
2023-05-19T10:57:08.195Z,39.73
2023-05-19T10:59:39.645Z,38.76
2023-05-19T11:02:08.050Z,38.55
2023-05-19T11:04:56.225Z,38.09
2023-05-19T11:07:24.679Z,38.40
2023-05-19T11:09:54.454Z,38.97
2023-05-19T11:12:24.648Z,37.69
2023-05-19T11:14:55.381Z,38.12
2023-05-19T11:17:24.582Z,37.71
2023-05-19T11:19:55.525Z,36.34
2023-05-19T11:22:26.529Z,35.81
2023-05-19T11:24:57.151Z,35.78
2023-05-19T11:27:34.613Z,35.58
2023-05-19T11:30:11.399Z,35.44
2023-05-19T11:32:44.383Z,34.16
2023-05-19T11:35:11.144Z,34.50
2023-05-19T11:37:37.795Z,33.70
2023-05-19T11:40:07.099Z,33.08
2023-05-19T11:42:34.855Z,31.93
2023-05-19T11:45:02.006Z,32.41
2023-05-19T11:47:28.548Z,30.96
2023-05-19T11:49:56.651Z,31.90
2023-05-19T11:52:24.438Z,30.79
2023-05-19T11:54:51.731Z,29.49
2023-05-19T11:57:18.443Z,29.06
2023-05-19T11:59:47.806Z,28.71
2023-05-19T12:02:19.585Z,28.43
2023-05-19T12:04:49.622Z,27.48
2023-05-19T12:07:18.330Z,27.20
2023-05-19T12:09:48.750Z,27.45
2023-05-19T12:12:19.978Z,27.27
2023-05-19T12:14:47.819Z,27.16
2023-05-19T12:17:19.782Z,27.52
2023-05-19T12:19:48.501Z,26.50
2023-05-19T12:22:16.396Z,26.08
2023-05-19T12:24:44.804Z,25.71
2023-05-19T12:27:24.438Z,25.77
2023-05-19T12:29:52.344Z,25.53
2023-05-19T12:32:19.603Z,25.90
2023-05-19T12:34:46.095Z,25.65
2023-05-19T12:37:12.613Z,25.23
2023-05-19T12:39:41.981Z,24.95
2023-05-19T12:42:10.137Z,24.58
2023-05-19T12:44:38.196Z,24.70
2023-05-19T12:47:07.099Z,24.37
2023-05-19T12:49:33.786Z,24.45
2023-05-19T12:52:07.201Z,24.26
2023-05-19T12:54:37.150Z,24.41
2023-05-19T12:57:05.953Z,24.37
2023-05-19T12:59:38.672Z,24.44
2023-05-19T13:02:06.254Z,24.30
2023-05-19T13:04:33.071Z,24.25
2023-05-19T13:06:59.490Z,23.62
2023-05-19T13:09:26.655Z,23.69
2023-05-19T13:11:53.980Z,23.62
2023-05-19T13:14:20.687Z,23.73
2023-05-19T13:16:47.438Z,22.91
2023-05-19T13:21:51.011Z,23.02
2023-05-19T13:24:17.566Z,23.40
2023-05-19T13:26:45.199Z,23.02
2023-05-19T13:29:11.890Z,23.08
2023-05-19T13:31:38.472Z,22.96
2023-05-19T13:34:05.341Z,23.19
2023-05-19T13:36:33.217Z,22.96
2023-05-19T13:39:00.790Z,22.45
2023-05-19T13:41:29.296Z,22.83
2023-05-19T13:44:00.904Z,23.20
2023-05-19T13:46:40.919Z,23.16
2023-05-19T13:49:11.696Z,22.78
2023-05-19T13:51:39.615Z,22.89
2023-05-19T13:54:06.046Z,22.91
2023-05-19T13:56:32.999Z,23.44
2023-05-19T13:58:59.538Z,23.66
2023-05-19T14:01:26.025Z,22.87
2023-05-19T14:03:53.020Z,23.50
2023-05-19T14:06:19.745Z,23.21
2023-05-19T14:08:46.512Z,23.56
2023-05-19T14:11:19.895Z,23.49
2023-05-19T14:13:51.751Z,23.21
2023-05-19T14:16:20.343Z,22.71
2023-05-19T14:18:46.880Z,23.30
2023-05-19T14:21:13.325Z,23.57
2023-05-19T14:23:40.118Z,23.85
2023-05-19T14:26:06.746Z,24.16
2023-05-19T14:28:33.226Z,23.25
2023-05-19T14:30:59.967Z,23.09
2023-05-19T14:33:26.424Z,23.43
2023-05-19T14:35:53.408Z,23.23
2023-05-19T14:38:19.918Z,22.96
2023-05-19T14:40:48.265Z,23.50
2023-05-19T14:43:14.717Z,23.18
2023-05-19T14:45:43.976Z,23.15
2023-05-19T14:48:13.793Z,24.09
2023-05-19T14:50:40.409Z,23.89
2023-05-19T14:53:07.019Z,23.24
2023-05-19T14:55:33.492Z,23.31
2023-05-19T14:57:59.986Z,23.12
2023-05-19T15:00:26.852Z,22.98
2023-05-19T15:02:54.085Z,23.31
2023-05-19T15:05:21.588Z,23.96
2023-05-19T15:07:48.051Z,23.30
2023-05-19T15:10:14.626Z,23.57
2023-05-19T15:12:41.162Z,23.58
2023-05-19T15:15:08.416Z,23.99
2023-05-19T15:17:34.986Z,23.94
2023-05-19T15:20:01.517Z,24.71
2023-05-19T15:22:28.011Z,24.32
2023-05-19T15:24:55.014Z,25.00
2023-05-19T15:27:22.402Z,25.01
2023-05-19T15:29:49.015Z,24.51
2023-05-19T15:32:15.448Z,24.97
2023-05-19T15:34:41.874Z,24.81
2023-05-19T15:37:08.462Z,24.62
2023-05-19T15:39:34.939Z,24.76
2023-05-19T15:42:01.581Z,25.01
2023-05-19T15:44:29.108Z,26.53
2023-05-19T15:46:55.843Z,26.06
2023-05-19T15:49:22.584Z,25.29
2023-05-19T15:51:49.426Z,26.41
2023-05-19T15:54:15.892Z,26.40
2023-05-19T15:56:42.380Z,26.25
2023-05-19T15:59:08.815Z,26.79
2023-05-19T16:01:35.770Z,26.08
2023-05-19T16:04:03.701Z,26.60
2023-05-19T16:06:31.286Z,26.28
2023-05-19T16:08:57.807Z,26.17
2023-05-19T16:11:24.283Z,26.51
2023-05-19T16:13:50.749Z,26.92
2023-05-19T16:16:17.516Z,26.64
2023-05-19T16:18:44.589Z,26.65
2023-05-19T16:21:11.062Z,27.33
2023-05-19T16:23:37.653Z,27.69
2023-05-19T16:26:04.771Z,27.27
2023-05-19T16:28:32.348Z,27.72
2023-05-19T16:31:00.061Z,27.75
2023-05-19T16:33:27.308Z,27.79
2023-05-19T16:35:54.003Z,28.17
2023-05-19T16:38:20.554Z,28.27
2023-05-19T16:40:46.965Z,27.88
2023-05-19T16:43:13.396Z,27.90
2023-05-19T16:45:40.537Z,28.11
2023-05-19T16:48:07.010Z,28.14
2023-05-19T16:50:33.827Z,28.37
2023-05-19T16:53:00.704Z,28.69
2023-05-19T16:55:27.186Z,28.30
2023-05-19T16:57:53.643Z,28.44
2023-05-19T17:00:20.280Z,28.38
2023-05-19T17:02:46.817Z,30.30
2023-05-19T17:05:13.367Z,32.14
2023-05-19T17:07:40.004Z,31.25
2023-05-19T17:10:07.107Z,29.87
2023-05-19T17:12:33.558Z,29.44
2023-05-19T17:15:00.001Z,29.40
2023-05-19T17:17:26.525Z,29.05
2023-05-19T17:19:53.058Z,29.19
2023-05-19T17:22:19.572Z,29.00
2023-05-19T17:24:46.232Z,28.90
2023-05-19T17:27:12.671Z,29.09
2023-05-19T17:29:39.307Z,28.90
2023-05-19T17:32:05.987Z,29.02
2023-05-19T17:34:32.615Z,29.31
2023-05-19T17:36:59.052Z,29.42
2023-05-19T17:39:25.474Z,29.55
2023-05-19T17:41:52.209Z,29.55
2023-05-19T17:44:18.673Z,29.94
2023-05-19T17:46:45.175Z,29.89
2023-05-19T17:49:12.974Z,29.74
2023-05-19T17:51:39.685Z,29.46
2023-05-19T17:54:06.592Z,29.88
2023-05-19T17:56:34.394Z,29.92
2023-05-19T17:59:01.728Z,29.88
2023-05-19T18:01:28.530Z,29.95
2023-05-19T18:03:55.335Z,30.10
2023-05-19T18:06:24.008Z,30.19
2023-05-19T18:08:51.734Z,30.60
2023-05-19T18:11:18.748Z,30.83
2023-05-19T18:13:45.536Z,30.50
2023-05-19T18:16:12.405Z,30.44
2023-05-19T18:18:41.130Z,30.50
2023-05-19T18:21:07.890Z,30.16
2023-05-19T18:23:34.368Z,30.41
2023-05-19T18:26:00.839Z,30.82
2023-05-19T18:28:29.588Z,30.95
2023-05-19T18:31:00.761Z,30.75
2023-05-19T18:33:28.760Z,31.20
2023-05-19T18:35:57.895Z,31.40
2023-05-19T18:38:24.458Z,31.22
2023-05-19T18:40:51.176Z,31.77
2023-05-19T18:43:18.401Z,32.16
2023-05-19T18:45:46.951Z,32.11
2023-05-19T18:48:13.503Z,32.17
2023-05-19T18:50:40.850Z,32.04
2023-05-19T18:53:07.302Z,32.23
2023-05-19T18:55:34.213Z,32.34
2023-05-19T18:58:01.705Z,32.23
2023-05-19T19:00:28.504Z,32.25
2023-05-19T19:02:55.084Z,33.26
2023-05-19T19:05:21.843Z,35.58
2023-05-19T19:07:49.226Z,32.93
2023-05-19T19:10:15.745Z,32.23
2023-05-19T19:12:42.421Z,32.09
2023-05-19T19:15:09.457Z,32.30
2023-05-19T19:17:37.390Z,32.57
2023-05-19T19:20:04.142Z,32.50
2023-05-19T19:22:30.729Z,32.90
2023-05-19T19:24:57.180Z,32.82
2023-05-19T19:27:24.680Z,32.85
2023-05-19T19:29:51.239Z,33.50
2023-05-19T19:32:17.737Z,33.37
2023-05-19T19:34:44.377Z,33.68
2023-05-19T19:37:11.272Z,34.07
2023-05-19T19:39:38.126Z,33.92
2023-05-19T19:42:05.033Z,34.65
2023-05-19T19:44:31.445Z,34.27
2023-05-19T19:46:57.908Z,34.28
2023-05-19T19:49:24.337Z,34.06
2023-05-19T19:51:50.833Z,34.22
2023-05-19T19:54:18.149Z,34.69
2023-05-19T19:56:44.586Z,35.20
2023-05-19T19:59:11.083Z,35.38
2023-05-19T20:01:37.554Z,36.33
2023-05-19T20:04:04.297Z,36.67
2023-05-19T20:06:32.152Z,36.87
2023-05-19T20:08:59.063Z,37.10
2023-05-19T20:11:26.651Z,37.01
2023-05-19T20:13:53.361Z,36.99
2023-05-19T20:16:19.960Z,37.30
2023-05-19T20:18:46.521Z,37.19
2023-05-19T20:21:13.021Z,37.55
2023-05-19T20:23:40.639Z,37.49
2023-05-19T20:26:12.752Z,37.38
2023-05-19T20:28:40.010Z,37.65
2023-05-19T20:31:06.738Z,37.62
2023-05-19T20:33:33.206Z,38.03
2023-05-19T20:35:59.736Z,37.86
2023-05-19T20:38:26.561Z,38.25
2023-05-19T20:40:54.214Z,38.69
2023-05-19T20:43:21.140Z,38.81
2023-05-19T20:45:47.776Z,38.92
2023-05-19T20:48:15.685Z,39.31
2023-05-19T20:50:42.255Z,39.73
2023-05-19T20:53:08.699Z,39.67
2023-05-19T20:55:36.476Z,39.88
2023-05-19T20:58:03.137Z,39.82
2023-05-19T21:00:30.633Z,40.15
2023-05-19T21:02:57.903Z,40.57
2023-05-19T21:05:24.639Z,40.74
2023-05-19T21:07:51.160Z,41.21
2023-05-19T21:10:17.853Z,41.19
2023-05-19T21:12:44.429Z,41.44
2023-05-19T21:15:11.548Z,42.84
2023-05-19T21:17:38.106Z,43.20
2023-05-19T21:20:05.235Z,44.08
2023-05-19T21:22:31.805Z,44.49
2023-05-19T21:24:58.459Z,44.73
2023-05-19T21:27:25.009Z,45.55
2023-05-19T21:29:53.094Z,45.78
2023-05-19T21:32:20.556Z,46.41
2023-05-19T21:34:47.089Z,46.89
2023-05-19T21:37:13.631Z,47.90
2023-05-19T21:39:40.209Z,48.23
2023-05-19T21:42:07.206Z,48.15
2023-05-19T21:44:33.685Z,49.18
2023-05-19T21:47:00.221Z,49.40
2023-05-19T21:49:26.704Z,49.76
2023-05-19T21:51:53.126Z,49.80
2023-05-19T21:54:19.588Z,49.80
2023-05-19T21:56:46.399Z,50.70
2023-05-19T21:59:12.844Z,51.44
2023-05-19T22:01:39.651Z,51.15
2023-05-19T22:04:06.300Z,51.47
2023-05-19T22:06:33.525Z,52.21
2023-05-19T22:09:02.193Z,52.47
2023-05-19T22:11:28.934Z,52.68
2023-05-19T22:13:55.504Z,53.93
2023-05-19T22:16:22.179Z,54.51
2023-05-19T22:18:48.801Z,55.08
2023-05-19T22:21:15.253Z,54.98
2023-05-19T22:23:41.721Z,55.65
2023-05-19T22:26:08.270Z,55.44
2023-05-19T22:28:34.722Z,55.28
2023-05-19T22:31:01.255Z,55.69
2023-05-19T22:33:27.791Z,56.58
2023-05-19T22:35:54.350Z,57.15
2023-05-19T22:38:20.853Z,57.69
2023-05-19T22:40:47.355Z,58.50
2023-05-19T22:43:13.793Z,59.24
2023-05-19T22:45:40.462Z,60.89
2023-05-19T22:48:07.067Z,61.82
2023-05-19T22:50:33.547Z,62.34
2023-05-19T22:53:00.105Z,62.26
2023-05-19T22:55:26.646Z,62.63
2023-05-19T22:57:53.088Z,63.68
2023-05-19T23:00:20.835Z,64.04
2023-05-19T23:02:47.410Z,64.50
2023-05-19T23:05:13.979Z,64.77
2023-05-19T23:07:40.655Z,64.39
2023-05-19T23:10:07.864Z,64.23
2023-05-19T23:12:34.431Z,64.02
2023-05-19T23:15:01.160Z,63.33
2023-05-19T23:17:27.692Z,62.98
2023-05-19T23:19:54.169Z,62.32
2023-05-19T23:22:20.724Z,62.05
2023-05-19T23:24:47.357Z,60.96
2023-05-19T23:27:13.807Z,60.94
2023-05-19T23:29:40.293Z,60.23
2023-05-19T23:32:07.188Z,59.45
2023-05-19T23:34:33.925Z,59.40
2023-05-19T23:37:00.491Z,58.62
2023-05-19T23:39:27.526Z,58.69
2023-05-19T23:41:54.020Z,58.03
2023-05-19T23:44:20.599Z,57.39
2023-05-19T23:46:47.074Z,57.24
2023-05-19T23:49:14.346Z,56.45
2023-05-19T23:51:40.811Z,56.56
2023-05-19T23:54:07.247Z,55.88
2023-05-19T23:56:33.701Z,55.99
2023-05-19T23:59:00.663Z,55.51
